Estación de Lontue
Ultimos registro cada 15 minutos 38
| N° | Estación | Fecha / Hora | Temperatura | Humedad | Lluvia | Velocidad | Dirección | Radiación | Presion |
| 38 | Lontue | 05-05-2026 09:15 | 12,5 | 82,6 | 0 | 1,5 | 102 | 124,4 | 988,5 |
| 37 | Lontue | 05-05-2026 09:00 | 12 | 83,8 | 0 | 1,9 | 174 | 90,6 | 988,4 |
| 36 | Lontue | 05-05-2026 08:45 | 11,3 | 86 | 0 | 0,4 | 216 | 78,1 | 988,5 |
| 35 | Lontue | 05-05-2026 08:30 | 10,8 | 87 | 0 | 0,4 | 298 | 44,4 | 988,1 |
| 34 | Lontue | 05-05-2026 08:15 | 10,6 | 86,8 | 0 | 1,9 | 267 | 30,6 | 988,1 |
| 33 | Lontue | 05-05-2026 08:00 | 10,2 | 87,4 | 0 | 1,1 | 222 | 14,4 | 987,7 |
| 32 | Lontue | 05-05-2026 07:45 | 10,1 | 87,5 | 0 | 1,5 | 254 | 5,6 | 988,9 |
| 31 | Lontue | 05-05-2026 07:30 | 10 | 87,6 | 0 | 0,8 | 302 | 0,6 | 988,7 |
| 30 | Lontue | 05-05-2026 07:15 | 10,1 | 86,8 | 0 | 0,8 | 336 | 0,6 | 989 |
| 29 | Lontue | 05-05-2026 07:00 | 10 | 87,1 | 0 | 3,4 | 24 | 0,6 | 989 |
| 28 | Lontue | 05-05-2026 06:45 | 9,8 | 89,5 | 0 | 1,5 | 28 | 0,6 | 988,9 |
| 27 | Lontue | 05-05-2026 06:30 | 9,5 | 90,1 | 0 | 1,5 | 46 | 0,6 | 989,9 |
| 26 | Lontue | 05-05-2026 06:15 | 9,5 | 90,7 | 0 | 1,1 | 350 | 0,6 | 990,5 |
| 25 | Lontue | 05-05-2026 06:00 | 9,3 | 90,7 | 0 | 0,8 | 209 | 0,6 | 989,5 |
| 24 | Lontue | 05-05-2026 05:45 | 9,3 | 90,3 | 0 | 0,4 | 215 | 0,6 | 990,1 |
| 23 | Lontue | 05-05-2026 05:30 | 9,4 | 90,3 | 0 | 0 | 154 | 0,6 | 990 |
| 22 | Lontue | 05-05-2026 05:15 | 9,5 | 90,5 | 0 | 0 | 153 | 0,6 | 989,8 |
| 21 | Lontue | 05-05-2026 05:00 | 9,4 | 90,6 | 0 | 0 | 152 | 0,6 | 990,2 |
| 20 | Lontue | 05-05-2026 04:45 | 9,5 | 91 | 0 | 0,4 | 153 | 0,6 | 989,9 |
| 19 | Lontue | 05-05-2026 04:30 | 9,1 | 91,2 | 0 | 0 | 154 | 0,6 | 990,4 |
| 18 | Lontue | 05-05-2026 04:15 | 9 | 91,1 | 0 | 0 | 154 | 0,6 | 989,7 |
| 17 | Lontue | 05-05-2026 04:00 | 9,1 | 91,1 | 0 | 0 | 154 | 0,6 | 989,3 |
| 16 | Lontue | 05-05-2026 03:45 | 9 | 90,8 | 0 | 0 | 154 | 0,6 | 989,5 |
| 15 | Lontue | 05-05-2026 03:30 | 8,8 | 90,3 | 0 | 0 | 154 | 0,6 | 989,5 |
| 14 | Lontue | 05-05-2026 03:15 | 8,9 | 89,9 | 0 | 0 | 154 | 0,6 | 989,7 |
| 13 | Lontue | 05-05-2026 03:00 | 9,1 | 89,7 | 0 | 0 | 154 | 0,6 | 989,7 |
| 12 | Lontue | 05-05-2026 02:45 | 9,3 | 89,5 | 0 | 0 | 154 | 0,6 | 989,7 |
| 11 | Lontue | 05-05-2026 02:30 | 9,2 | 89,6 | 0 | 0 | 154 | 0,6 | 990 |
| 10 | Lontue | 05-05-2026 02:15 | 9,1 | 89,9 | 0 | 0 | 154 | 0,6 | 990,2 |
| 9 | Lontue | 05-05-2026 02:00 | 9,1 | 90,4 | 0 | 0 | 154 | 0,6 | 990,2 |
| 8 | Lontue | 05-05-2026 01:45 | 9,1 | 90,8 | 0 | 0 | 154 | 0,6 | 990,2 |
| 7 | Lontue | 05-05-2026 01:30 | 8,8 | 91,6 | 0 | 0 | 154 | 0,6 | 990,1 |
| 6 | Lontue | 05-05-2026 01:15 | 8,4 | 91,2 | 0 | 0 | 154 | 0,6 | 990,3 |
| 5 | Lontue | 05-05-2026 01:00 | 8 | 91,1 | 0 | 0 | 154 | 0,6 | 990,4 |
| 4 | Lontue | 05-05-2026 00:45 | 7,7 | 90,5 | 0 | 0 | 154 | 0,6 | 990,5 |
| 3 | Lontue | 05-05-2026 00:30 | 8,6 | 90,1 | 0 | 0 | 154 | 0,6 | 990,6 |
| 2 | Lontue | 05-05-2026 00:15 | 8,8 | 89,5 | 0 | 0 | 154 | 0,6 | 990,5 |
| 1 | Lontue | 05-05-2026 00:00 | 9 | 88,7 | 0 | 0 | 154 | 0,6 | 990,4 |